sensor_id;sensor_type;location;lat;lon;timestamp;temperature;humidity
31038;DHT22;17702;47.590;7.666;2023-04-24T00:00:33;13.80;99.90
31038;DHT22;17702;47.590;7.666;2023-04-24T00:02:58;13.90;98.40
31038;DHT22;17702;47.590;7.666;2023-04-24T00:05:24;13.90;99.10
31038;DHT22;17702;47.590;7.666;2023-04-24T00:07:50;13.90;99.90
31038;DHT22;17702;47.590;7.666;2023-04-24T00:10:18;13.90;98.80
31038;DHT22;17702;47.590;7.666;2023-04-24T00:12:44;14.00;98.20
31038;DHT22;17702;47.590;7.666;2023-04-24T00:15:10;14.10;97.50
31038;DHT22;17702;47.590;7.666;2023-04-24T00:17:35;14.10;96.40
31038;DHT22;17702;47.590;7.666;2023-04-24T00:20:01;14.10;96.10
31038;DHT22;17702;47.590;7.666;2023-04-24T00:22:30;14.10;97.30
31038;DHT22;17702;47.590;7.666;2023-04-24T00:24:55;14.10;97.40
31038;DHT22;17702;47.590;7.666;2023-04-24T00:27:21;14.10;97.50
31038;DHT22;17702;47.590;7.666;2023-04-24T00:29:46;14.10;97.60
31038;DHT22;17702;47.590;7.666;2023-04-24T00:32:12;14.10;97.50
31038;DHT22;17702;47.590;7.666;2023-04-24T00:34:38;14.10;96.20
31038;DHT22;17702;47.590;7.666;2023-04-24T00:40:01;14.10;96.70
31038;DHT22;17702;47.590;7.666;2023-04-24T00:42:26;14.10;97.10
31038;DHT22;17702;47.590;7.666;2023-04-24T00:44:52;14.10;96.90
31038;DHT22;17702;47.590;7.666;2023-04-24T00:47:18;14.10;96.80
31038;DHT22;17702;47.590;7.666;2023-04-24T00:49:44;14.10;96.30
31038;DHT22;17702;47.590;7.666;2023-04-24T00:52:09;14.00;96.40
31038;DHT22;17702;47.590;7.666;2023-04-24T00:54:35;14.00;98.00
31038;DHT22;17702;47.590;7.666;2023-04-24T00:57:02;14.00;97.70
31038;DHT22;17702;47.590;7.666;2023-04-24T00:59:28;14.00;96.30
31038;DHT22;17702;47.590;7.666;2023-04-24T01:01:54;14.10;96.70
31038;DHT22;17702;47.590;7.666;2023-04-24T01:04:20;14.10;96.40
31038;DHT22;17702;47.590;7.666;2023-04-24T01:06:45;14.10;96.50
31038;DHT22;17702;47.590;7.666;2023-04-24T01:09:11;14.10;96.20
31038;DHT22;17702;47.590;7.666;2023-04-24T01:11:37;14.10;95.50
31038;DHT22;17702;47.590;7.666;2023-04-24T01:14:03;14.10;95.40
31038;DHT22;17702;47.590;7.666;2023-04-24T01:16:28;14.10;95.50
31038;DHT22;17702;47.590;7.666;2023-04-24T01:18:54;14.10;95.60
31038;DHT22;17702;47.590;7.666;2023-04-24T01:21:20;14.00;95.30
31038;DHT22;17702;47.590;7.666;2023-04-24T01:23:46;14.00;96.60
31038;DHT22;17702;47.590;7.666;2023-04-24T01:26:12;13.90;97.10
31038;DHT22;17702;47.590;7.666;2023-04-24T01:28:38;14.00;96.60
31038;DHT22;17702;47.590;7.666;2023-04-24T01:31:04;14.00;97.40
31038;DHT22;17702;47.590;7.666;2023-04-24T01:33:29;14.00;96.10
31038;DHT22;17702;47.590;7.666;2023-04-24T01:35:55;14.00;96.10
31038;DHT22;17702;47.590;7.666;2023-04-24T01:38:20;13.90;95.80
31038;DHT22;17702;47.590;7.666;2023-04-24T01:40:46;13.90;97.00
31038;DHT22;17702;47.590;7.666;2023-04-24T01:43:12;13.90;96.10
31038;DHT22;17702;47.590;7.666;2023-04-24T01:45:37;13.90;96.30
31038;DHT22;17702;47.590;7.666;2023-04-24T01:48:03;14.00;95.90
31038;DHT22;17702;47.590;7.666;2023-04-24T01:50:28;13.90;96.60
31038;DHT22;17702;47.590;7.666;2023-04-24T01:52:54;14.00;97.10
31038;DHT22;17702;47.590;7.666;2023-04-24T01:55:20;13.90;95.70
31038;DHT22;17702;47.590;7.666;2023-04-24T01:57:46;13.90;95.90
31038;DHT22;17702;47.590;7.666;2023-04-24T02:00:11;13.90;96.40
31038;DHT22;17702;47.590;7.666;2023-04-24T02:02:38;13.90;95.80
31038;DHT22;17702;47.590;7.666;2023-04-24T02:05:05;13.90;96.80
31038;DHT22;17702;47.590;7.666;2023-04-24T02:07:31;13.90;96.00
31038;DHT22;17702;47.590;7.666;2023-04-24T02:09:58;13.90;96.40
31038;DHT22;17702;47.590;7.666;2023-04-24T02:12:23;13.90;96.40
31038;DHT22;17702;47.590;7.666;2023-04-24T02:14:49;13.90;96.30
31038;DHT22;17702;47.590;7.666;2023-04-24T02:17:14;13.90;96.70
31038;DHT22;17702;47.590;7.666;2023-04-24T02:19:41;13.90;97.10
31038;DHT22;17702;47.590;7.666;2023-04-24T02:22:06;13.90;98.10
31038;DHT22;17702;47.590;7.666;2023-04-24T02:24:32;13.80;97.80
31038;DHT22;17702;47.590;7.666;2023-04-24T02:26:57;13.80;97.50
31038;DHT22;17702;47.590;7.666;2023-04-24T02:29:23;13.80;98.00
31038;DHT22;17702;47.590;7.666;2023-04-24T02:31:48;13.80;97.50
31038;DHT22;17702;47.590;7.666;2023-04-24T02:34:14;13.80;98.20
31038;DHT22;17702;47.590;7.666;2023-04-24T02:36:40;13.80;98.10
31038;DHT22;17702;47.590;7.666;2023-04-24T02:39:05;13.70;97.60
31038;DHT22;17702;47.590;7.666;2023-04-24T02:41:31;13.80;97.50
31038;DHT22;17702;47.590;7.666;2023-04-24T02:43:58;13.80;97.60
31038;DHT22;17702;47.590;7.666;2023-04-24T02:46:24;13.80;97.80
31038;DHT22;17702;47.590;7.666;2023-04-24T02:48:49;13.80;97.40
31038;DHT22;17702;47.590;7.666;2023-04-24T02:51:15;13.80;98.00
31038;DHT22;17702;47.590;7.666;2023-04-24T02:53:40;13.70;98.10
31038;DHT22;17702;47.590;7.666;2023-04-24T02:56:06;13.70;98.40
31038;DHT22;17702;47.590;7.666;2023-04-24T02:58:31;13.70;98.60
31038;DHT22;17702;47.590;7.666;2023-04-24T03:00:57;13.70;99.80
31038;DHT22;17702;47.590;7.666;2023-04-24T03:03:22;13.70;99.90
31038;DHT22;17702;47.590;7.666;2023-04-24T03:05:49;13.70;99.90
31038;DHT22;17702;47.590;7.666;2023-04-24T03:08:14;13.70;99.90
31038;DHT22;17702;47.590;7.666;2023-04-24T03:10:40;13.70;99.40
31038;DHT22;17702;47.590;7.666;2023-04-24T03:13:05;13.70;99.40
31038;DHT22;17702;47.590;7.666;2023-04-24T03:15:31;13.70;99.90
31038;DHT22;17702;47.590;7.666;2023-04-24T03:17:56;13.70;99.90
31038;DHT22;17702;47.590;7.666;2023-04-24T03:20:22;13.60;99.90
31038;DHT22;17702;47.590;7.666;2023-04-24T03:22:48;13.50;99.90
31038;DHT22;17702;47.590;7.666;2023-04-24T03:25:13;13.40;99.90
31038;DHT22;17702;47.590;7.666;2023-04-24T03:27:39;13.30;99.90
31038;DHT22;17702;47.590;7.666;2023-04-24T03:30:05;13.20;99.90
31038;DHT22;17702;47.590;7.666;2023-04-24T03:32:31;13.10;99.90
31038;DHT22;17702;47.590;7.666;2023-04-24T03:34:57;13.10;99.90
31038;DHT22;17702;47.590;7.666;2023-04-24T03:37:23;13.00;99.90
31038;DHT22;17702;47.590;7.666;2023-04-24T03:39:48;13.00;99.90
31038;DHT22;17702;47.590;7.666;2023-04-24T03:42:14;13.00;99.90
31038;DHT22;17702;47.590;7.666;2023-04-24T03:44:39;12.90;99.90
31038;DHT22;17702;47.590;7.666;2023-04-24T03:47:04;12.90;99.90
31038;DHT22;17702;47.590;7.666;2023-04-24T03:49:30;12.90;99.90
31038;DHT22;17702;47.590;7.666;2023-04-24T03:51:55;12.80;99.90
31038;DHT22;17702;47.590;7.666;2023-04-24T03:54:21;12.80;99.90
31038;DHT22;17702;47.590;7.666;2023-04-24T03:56:46;12.80;99.90
31038;DHT22;17702;47.590;7.666;2023-04-24T03:59:12;12.80;99.90
31038;DHT22;17702;47.590;7.666;2023-04-24T04:01:38;12.80;99.90
31038;DHT22;17702;47.590;7.666;2023-04-24T04:04:05;12.70;99.90
31038;DHT22;17702;47.590;7.666;2023-04-24T04:06:31;12.70;99.90
31038;DHT22;17702;47.590;7.666;2023-04-24T04:08:56;12.60;99.90
31038;DHT22;17702;47.590;7.666;2023-04-24T04:11:22;12.60;99.90
31038;DHT22;17702;47.590;7.666;2023-04-24T04:13:48;12.60;99.90
31038;DHT22;17702;47.590;7.666;2023-04-24T04:16:13;12.60;99.90
31038;DHT22;17702;47.590;7.666;2023-04-24T04:18:39;12.50;99.90
31038;DHT22;17702;47.590;7.666;2023-04-24T04:21:04;12.50;99.90
31038;DHT22;17702;47.590;7.666;2023-04-24T04:23:30;12.40;99.90
31038;DHT22;17702;47.590;7.666;2023-04-24T04:25:57;12.30;99.90
31038;DHT22;17702;47.590;7.666;2023-04-24T04:28:22;12.30;99.90
31038;DHT22;17702;47.590;7.666;2023-04-24T04:30:50;12.30;99.90
31038;DHT22;17702;47.590;7.666;2023-04-24T04:33:21;12.30;99.90
31038;DHT22;17702;47.590;7.666;2023-04-24T04:35:47;12.30;99.90
31038;DHT22;17702;47.590;7.666;2023-04-24T04:38:15;12.30;99.90
31038;DHT22;17702;47.590;7.666;2023-04-24T04:40:42;12.30;99.90
31038;DHT22;17702;47.590;7.666;2023-04-24T04:43:07;12.20;99.90
31038;DHT22;17702;47.590;7.666;2023-04-24T04:45:33;12.20;99.90
31038;DHT22;17702;47.590;7.666;2023-04-24T04:47:59;12.20;99.90
31038;DHT22;17702;47.590;7.666;2023-04-24T04:50:26;12.20;99.90
31038;DHT22;17702;47.590;7.666;2023-04-24T04:52:52;12.20;99.90
31038;DHT22;17702;47.590;7.666;2023-04-24T04:55:17;12.20;99.90
31038;DHT22;17702;47.590;7.666;2023-04-24T04:57:43;12.20;99.90
31038;DHT22;17702;47.590;7.666;2023-04-24T05:00:09;12.10;99.90
31038;DHT22;17702;47.590;7.666;2023-04-24T05:02:35;12.20;99.90
31038;DHT22;17702;47.590;7.666;2023-04-24T05:05:01;12.20;99.90
31038;DHT22;17702;47.590;7.666;2023-04-24T05:07:26;12.30;99.90
31038;DHT22;17702;47.590;7.666;2023-04-24T05:09:52;12.30;99.90
31038;DHT22;17702;47.590;7.666;2023-04-24T05:12:17;12.30;99.90
31038;DHT22;17702;47.590;7.666;2023-04-24T05:14:43;12.20;99.90
31038;DHT22;17702;47.590;7.666;2023-04-24T05:17:08;12.10;99.90
31038;DHT22;17702;47.590;7.666;2023-04-24T05:19:34;12.10;99.90
31038;DHT22;17702;47.590;7.666;2023-04-24T05:22:01;12.10;99.90
31038;DHT22;17702;47.590;7.666;2023-04-24T05:24:28;12.10;99.90
31038;DHT22;17702;47.590;7.666;2023-04-24T05:26:53;12.10;99.90
31038;DHT22;17702;47.590;7.666;2023-04-24T05:29:20;12.20;99.90
31038;DHT22;17702;47.590;7.666;2023-04-24T05:31:46;12.20;99.90
31038;DHT22;17702;47.590;7.666;2023-04-24T05:34:12;12.10;99.90
31038;DHT22;17702;47.590;7.666;2023-04-24T05:36:37;12.10;99.90
31038;DHT22;17702;47.590;7.666;2023-04-24T05:39:03;12.10;99.90
31038;DHT22;17702;47.590;7.666;2023-04-24T05:41:30;12.10;99.90
31038;DHT22;17702;47.590;7.666;2023-04-24T05:43:55;12.10;99.90
31038;DHT22;17702;47.590;7.666;2023-04-24T05:46:21;12.20;99.90
31038;DHT22;17702;47.590;7.666;2023-04-24T05:48:46;12.10;99.90
31038;DHT22;17702;47.590;7.666;2023-04-24T05:51:12;12.20;99.90
31038;DHT22;17702;47.590;7.666;2023-04-24T05:53:37;12.20;99.90
31038;DHT22;17702;47.590;7.666;2023-04-24T05:56:03;12.20;99.90
31038;DHT22;17702;47.590;7.666;2023-04-24T05:58:28;12.30;99.90
31038;DHT22;17702;47.590;7.666;2023-04-24T06:00:54;12.30;99.90
31038;DHT22;17702;47.590;7.666;2023-04-24T06:03:20;12.40;99.90
31038;DHT22;17702;47.590;7.666;2023-04-24T06:05:45;12.40;99.90
31038;DHT22;17702;47.590;7.666;2023-04-24T06:08:11;12.50;99.90
31038;DHT22;17702;47.590;7.666;2023-04-24T06:10:36;12.50;99.90
31038;DHT22;17702;47.590;7.666;2023-04-24T06:13:02;12.60;99.90
31038;DHT22;17702;47.590;7.666;2023-04-24T06:15:28;12.60;99.90
31038;DHT22;17702;47.590;7.666;2023-04-24T06:17:54;12.70;99.90
31038;DHT22;17702;47.590;7.666;2023-04-24T06:20:20;12.70;99.90
31038;DHT22;17702;47.590;7.666;2023-04-24T06:22:45;12.80;99.90
31038;DHT22;17702;47.590;7.666;2023-04-24T06:25:11;12.80;99.90
31038;DHT22;17702;47.590;7.666;2023-04-24T06:27:36;12.60;99.90
31038;DHT22;17702;47.590;7.666;2023-04-24T06:30:02;12.40;99.90
31038;DHT22;17702;47.590;7.666;2023-04-24T06:32:28;12.10;99.90
31038;DHT22;17702;47.590;7.666;2023-04-24T06:34:53;11.90;99.90
31038;DHT22;17702;47.590;7.666;2023-04-24T06:37:19;11.80;99.90
31038;DHT22;17702;47.590;7.666;2023-04-24T06:39:45;11.70;99.90
31038;DHT22;17702;47.590;7.666;2023-04-24T06:42:12;11.60;99.90
31038;DHT22;17702;47.590;7.666;2023-04-24T06:44:38;11.50;99.90
31038;DHT22;17702;47.590;7.666;2023-04-24T06:47:06;11.40;99.90
31038;DHT22;17702;47.590;7.666;2023-04-24T06:49:32;11.50;99.90
31038;DHT22;17702;47.590;7.666;2023-04-24T06:51:58;11.50;99.90
31038;DHT22;17702;47.590;7.666;2023-04-24T06:54:23;11.60;99.90
31038;DHT22;17702;47.590;7.666;2023-04-24T06:56:49;11.60;99.90
31038;DHT22;17702;47.590;7.666;2023-04-24T06:59:16;11.60;99.90
31038;DHT22;17702;47.590;7.666;2023-04-24T07:01:41;11.50;99.90
31038;DHT22;17702;47.590;7.666;2023-04-24T07:04:06;11.40;99.90
31038;DHT22;17702;47.590;7.666;2023-04-24T07:06:32;11.40;99.90
31038;DHT22;17702;47.590;7.666;2023-04-24T07:08:57;11.40;99.90
31038;DHT22;17702;47.590;7.666;2023-04-24T07:11:24;11.50;99.90
31038;DHT22;17702;47.590;7.666;2023-04-24T07:13:54;11.50;99.90
31038;DHT22;17702;47.590;7.666;2023-04-24T07:16:20;11.60;99.90
31038;DHT22;17702;47.590;7.666;2023-04-24T07:18:46;11.60;99.90
31038;DHT22;17702;47.590;7.666;2023-04-24T07:21:11;11.60;99.90
31038;DHT22;17702;47.590;7.666;2023-04-24T07:23:37;11.60;99.90
31038;DHT22;17702;47.590;7.666;2023-04-24T07:26:02;11.60;99.90
31038;DHT22;17702;47.590;7.666;2023-04-24T07:28:28;11.70;99.90
31038;DHT22;17702;47.590;7.666;2023-04-24T07:30:56;11.80;99.90
31038;DHT22;17702;47.590;7.666;2023-04-24T07:33:22;11.80;99.90
31038;DHT22;17702;47.590;7.666;2023-04-24T07:35:48;12.00;99.90
31038;DHT22;17702;47.590;7.666;2023-04-24T07:38:13;12.20;99.90
31038;DHT22;17702;47.590;7.666;2023-04-24T07:40:39;12.40;99.90
31038;DHT22;17702;47.590;7.666;2023-04-24T07:43:04;12.70;99.90
31038;DHT22;17702;47.590;7.666;2023-04-24T07:45:30;12.70;99.90
31038;DHT22;17702;47.590;7.666;2023-04-24T07:47:56;12.70;99.90
31038;DHT22;17702;47.590;7.666;2023-04-24T07:50:22;12.70;99.90
31038;DHT22;17702;47.590;7.666;2023-04-24T07:52:47;12.70;99.90
31038;DHT22;17702;47.590;7.666;2023-04-24T07:55:13;12.70;99.90
31038;DHT22;17702;47.590;7.666;2023-04-24T07:57:39;12.60;99.90
31038;DHT22;17702;47.590;7.666;2023-04-24T08:00:04;12.50;99.90
31038;DHT22;17702;47.590;7.666;2023-04-24T08:02:31;12.60;99.90
31038;DHT22;17702;47.590;7.666;2023-04-24T08:04:56;12.60;99.90
31038;DHT22;17702;47.590;7.666;2023-04-24T08:07:22;12.60;99.90
31038;DHT22;17702;47.590;7.666;2023-04-24T08:09:48;12.70;99.90
31038;DHT22;17702;47.590;7.666;2023-04-24T08:12:14;12.90;99.90
31038;DHT22;17702;47.590;7.666;2023-04-24T08:14:39;13.10;99.90
31038;DHT22;17702;47.590;7.666;2023-04-24T08:17:05;13.20;96.80
31038;DHT22;17702;47.590;7.666;2023-04-24T08:19:30;13.30;96.60
31038;DHT22;17702;47.590;7.666;2023-04-24T08:21:56;13.20;93.90
31038;DHT22;17702;47.590;7.666;2023-04-24T08:24:21;13.20;92.70
31038;DHT22;17702;47.590;7.666;2023-04-24T08:26:47;13.30;94.20
31038;DHT22;17702;47.590;7.666;2023-04-24T08:29:15;13.50;93.50
31038;DHT22;17702;47.590;7.666;2023-04-24T08:31:41;13.80;91.60
31038;DHT22;17702;47.590;7.666;2023-04-24T08:34:06;14.10;92.70
31038;DHT22;17702;47.590;7.666;2023-04-24T08:36:32;14.30;87.80
31038;DHT22;17702;47.590;7.666;2023-04-24T08:38:57;14.50;88.10
31038;DHT22;17702;47.590;7.666;2023-04-24T08:41:23;14.70;89.70
31038;DHT22;17702;47.590;7.666;2023-04-24T08:43:51;14.90;91.20
31038;DHT22;17702;47.590;7.666;2023-04-24T08:46:17;15.20;85.70
31038;DHT22;17702;47.590;7.666;2023-04-24T08:48:43;15.30;87.30
31038;DHT22;17702;47.590;7.666;2023-04-24T08:51:09;15.40;86.40
31038;DHT22;17702;47.590;7.666;2023-04-24T08:53:35;15.50;80.80
31038;DHT22;17702;47.590;7.666;2023-04-24T08:56:01;15.30;76.30
31038;DHT22;17702;47.590;7.666;2023-04-24T08:58:27;15.20;77.40
31038;DHT22;17702;47.590;7.666;2023-04-24T09:00:56;15.10;79.80
31038;DHT22;17702;47.590;7.666;2023-04-24T09:03:22;15.00;77.80
31038;DHT22;17702;47.590;7.666;2023-04-24T09:05:47;14.90;78.50
31038;DHT22;17702;47.590;7.666;2023-04-24T09:08:14;15.00;79.00
31038;DHT22;17702;47.590;7.666;2023-04-24T09:10:41;15.00;75.60
31038;DHT22;17702;47.590;7.666;2023-04-24T09:13:06;14.80;78.20
31038;DHT22;17702;47.590;7.666;2023-04-24T09:15:34;14.80;78.40
31038;DHT22;17702;47.590;7.666;2023-04-24T09:18:00;14.80;80.40
31038;DHT22;17702;47.590;7.666;2023-04-24T09:20:26;14.80;79.10
31038;DHT22;17702;47.590;7.666;2023-04-24T09:22:54;14.80;82.40
31038;DHT22;17702;47.590;7.666;2023-04-24T09:25:21;14.80;78.90
31038;DHT22;17702;47.590;7.666;2023-04-24T09:27:47;15.00;85.00
31038;DHT22;17702;47.590;7.666;2023-04-24T09:30:13;15.30;82.30
31038;DHT22;17702;47.590;7.666;2023-04-24T09:32:38;15.40;78.70
31038;DHT22;17702;47.590;7.666;2023-04-24T09:35:11;15.40;79.90
31038;DHT22;17702;47.590;7.666;2023-04-24T09:37:40;15.30;81.20
31038;DHT22;17702;47.590;7.666;2023-04-24T09:40:07;15.10;82.10
31038;DHT22;17702;47.590;7.666;2023-04-24T09:42:32;15.00;79.20
31038;DHT22;17702;47.590;7.666;2023-04-24T09:44:58;14.80;79.50
31038;DHT22;17702;47.590;7.666;2023-04-24T09:47:23;14.70;82.30
31038;DHT22;17702;47.590;7.666;2023-04-24T09:49:49;14.60;85.00
31038;DHT22;17702;47.590;7.666;2023-04-24T09:52:14;14.60;81.50
31038;DHT22;17702;47.590;7.666;2023-04-24T09:54:40;14.70;84.90
31038;DHT22;17702;47.590;7.666;2023-04-24T09:57:09;14.80;84.80
31038;DHT22;17702;47.590;7.666;2023-04-24T09:59:34;14.80;84.50
31038;DHT22;17702;47.590;7.666;2023-04-24T10:02:00;14.70;85.40
31038;DHT22;17702;47.590;7.666;2023-04-24T10:04:26;14.70;86.40
31038;DHT22;17702;47.590;7.666;2023-04-24T10:06:52;14.70;86.10
31038;DHT22;17702;47.590;7.666;2023-04-24T10:09:19;14.70;85.60
31038;DHT22;17702;47.590;7.666;2023-04-24T10:11:45;14.60;85.20
31038;DHT22;17702;47.590;7.666;2023-04-24T10:14:15;14.70;87.40
31038;DHT22;17702;47.590;7.666;2023-04-24T10:16:43;14.90;85.80
31038;DHT22;17702;47.590;7.666;2023-04-24T10:19:09;15.10;84.70
31038;DHT22;17702;47.590;7.666;2023-04-24T10:21:36;15.40;86.10
31038;DHT22;17702;47.590;7.666;2023-04-24T10:24:07;15.70;85.50
31038;DHT22;17702;47.590;7.666;2023-04-24T10:26:33;16.00;79.40
31038;DHT22;17702;47.590;7.666;2023-04-24T10:28:59;16.10;79.90
31038;DHT22;17702;47.590;7.666;2023-04-24T10:31:25;16.10;76.90
31038;DHT22;17702;47.590;7.666;2023-04-24T10:33:51;15.90;77.40
31038;DHT22;17702;47.590;7.666;2023-04-24T10:36:17;15.80;76.40
31038;DHT22;17702;47.590;7.666;2023-04-24T10:38:43;15.60;76.00
31038;DHT22;17702;47.590;7.666;2023-04-24T10:41:11;15.50;79.60
31038;DHT22;17702;47.590;7.666;2023-04-24T10:43:41;15.40;76.90
31038;DHT22;17702;47.590;7.666;2023-04-24T10:46:07;15.30;75.90
31038;DHT22;17702;47.590;7.666;2023-04-24T10:48:35;15.20;79.80
31038;DHT22;17702;47.590;7.666;2023-04-24T10:51:01;15.20;75.90
31038;DHT22;17702;47.590;7.666;2023-04-24T10:53:27;15.10;74.50
31038;DHT22;17702;47.590;7.666;2023-04-24T10:56:06;15.00;74.40
31038;DHT22;17702;47.590;7.666;2023-04-24T10:58:41;15.00;77.30
31038;DHT22;17702;47.590;7.666;2023-04-24T11:01:22;15.00;77.90
31038;DHT22;17702;47.590;7.666;2023-04-24T11:03:53;15.00;77.70
31038;DHT22;17702;47.590;7.666;2023-04-24T11:06:20;15.00;78.60
31038;DHT22;17702;47.590;7.666;2023-04-24T11:08:58;15.00;77.30
31038;DHT22;17702;47.590;7.666;2023-04-24T11:11:24;14.90;75.40
31038;DHT22;17702;47.590;7.666;2023-04-24T11:16:41;14.70;77.20
31038;DHT22;17702;47.590;7.666;2023-04-24T11:19:06;14.70;74.30
31038;DHT22;17702;47.590;7.666;2023-04-24T11:24:24;14.60;71.50
31038;DHT22;17702;47.590;7.666;2023-04-24T11:27:12;14.80;74.00
31038;DHT22;17702;47.590;7.666;2023-04-24T11:32:14;15.70;73.20
31038;DHT22;17702;47.590;7.666;2023-04-24T11:34:41;16.00;71.90
31038;DHT22;17702;47.590;7.666;2023-04-24T11:37:06;16.10;72.10
31038;DHT22;17702;47.590;7.666;2023-04-24T11:39:36;16.10;71.10
31038;DHT22;17702;47.590;7.666;2023-04-24T11:42:02;16.00;70.80
31038;DHT22;17702;47.590;7.666;2023-04-24T11:44:28;16.00;70.40
31038;DHT22;17702;47.590;7.666;2023-04-24T11:46:55;15.90;70.90
31038;DHT22;17702;47.590;7.666;2023-04-24T11:49:21;15.90;71.00
31038;DHT22;17702;47.590;7.666;2023-04-24T11:51:46;15.80;72.70
31038;DHT22;17702;47.590;7.666;2023-04-24T11:54:12;15.70;74.50
31038;DHT22;17702;47.590;7.666;2023-04-24T11:56:37;15.70;74.00
31038;DHT22;17702;47.590;7.666;2023-04-24T11:59:04;15.60;74.80
31038;DHT22;17702;47.590;7.666;2023-04-24T12:01:29;15.60;74.00
31038;DHT22;17702;47.590;7.666;2023-04-24T12:03:59;15.60;75.60
31038;DHT22;17702;47.590;7.666;2023-04-24T12:06:25;15.50;76.20
31038;DHT22;17702;47.590;7.666;2023-04-24T12:08:52;15.50;75.00
31038;DHT22;17702;47.590;7.666;2023-04-24T12:11:17;15.30;74.20
31038;DHT22;17702;47.590;7.666;2023-04-24T12:13:44;15.20;75.50
31038;DHT22;17702;47.590;7.666;2023-04-24T12:16:10;15.00;79.20
31038;DHT22;17702;47.590;7.666;2023-04-24T12:18:41;14.80;85.90
31038;DHT22;17702;47.590;7.666;2023-04-24T12:21:16;14.60;83.40
31038;DHT22;17702;47.590;7.666;2023-04-24T12:23:42;14.50;85.30
31038;DHT22;17702;47.590;7.666;2023-04-24T12:26:08;14.40;88.80
31038;DHT22;17702;47.590;7.666;2023-04-24T12:28:35;14.50;90.20
31038;DHT22;17702;47.590;7.666;2023-04-24T12:31:01;14.80;93.10
31038;DHT22;17702;47.590;7.666;2023-04-24T12:33:26;15.20;86.30
31038;DHT22;17702;47.590;7.666;2023-04-24T12:35:52;15.60;89.40
31038;DHT22;17702;47.590;7.666;2023-04-24T12:38:25;15.80;79.30
31038;DHT22;17702;47.590;7.666;2023-04-24T12:41:12;15.80;77.40
31038;DHT22;17702;47.590;7.666;2023-04-24T12:43:36;15.70;78.70
31038;DHT22;17702;47.590;7.666;2023-04-24T12:46:02;15.70;76.60
31038;DHT22;17702;47.590;7.666;2023-04-24T12:48:28;15.50;73.30
31038;DHT22;17702;47.590;7.666;2023-04-24T12:50:53;15.50;77.60
31038;DHT22;17702;47.590;7.666;2023-04-24T12:53:20;15.40;76.50
31038;DHT22;17702;47.590;7.666;2023-04-24T12:55:46;15.40;75.00
31038;DHT22;17702;47.590;7.666;2023-04-24T12:58:17;15.40;75.10
31038;DHT22;17702;47.590;7.666;2023-04-24T13:00:43;15.50;73.30
31038;DHT22;17702;47.590;7.666;2023-04-24T13:03:11;15.50;73.60
31038;DHT22;17702;47.590;7.666;2023-04-24T13:05:37;15.50;74.60
31038;DHT22;17702;47.590;7.666;2023-04-24T13:08:03;15.60;68.60
31038;DHT22;17702;47.590;7.666;2023-04-24T13:10:28;15.50;67.90
31038;DHT22;17702;47.590;7.666;2023-04-24T13:12:54;15.50;65.90
31038;DHT22;17702;47.590;7.666;2023-04-24T13:15:19;15.60;68.20
31038;DHT22;17702;47.590;7.666;2023-04-24T13:17:45;15.70;68.40
31038;DHT22;17702;47.590;7.666;2023-04-24T13:20:10;15.70;67.70
31038;DHT22;17702;47.590;7.666;2023-04-24T13:22:36;15.90;65.20
31038;DHT22;17702;47.590;7.666;2023-04-24T13:25:02;15.90;68.00
31038;DHT22;17702;47.590;7.666;2023-04-24T13:27:28;15.90;66.80
31038;DHT22;17702;47.590;7.666;2023-04-24T13:29:53;16.00;68.10
31038;DHT22;17702;47.590;7.666;2023-04-24T13:32:19;16.20;68.70
31038;DHT22;17702;47.590;7.666;2023-04-24T13:34:44;16.30;69.40
31038;DHT22;17702;47.590;7.666;2023-04-24T13:37:10;16.30;67.90
31038;DHT22;17702;47.590;7.666;2023-04-24T13:39:35;16.20;64.80
31038;DHT22;17702;47.590;7.666;2023-04-24T13:42:01;16.20;64.00
31038;DHT22;17702;47.590;7.666;2023-04-24T13:44:27;16.10;64.50
31038;DHT22;17702;47.590;7.666;2023-04-24T13:46:53;16.20;65.20
31038;DHT22;17702;47.590;7.666;2023-04-24T13:49:19;16.20;64.10
31038;DHT22;17702;47.590;7.666;2023-04-24T13:51:45;16.40;59.50
31038;DHT22;17702;47.590;7.666;2023-04-24T13:54:11;16.40;61.50
31038;DHT22;17702;47.590;7.666;2023-04-24T13:56:37;16.50;61.90
31038;DHT22;17702;47.590;7.666;2023-04-24T13:59:02;16.60;61.20
31038;DHT22;17702;47.590;7.666;2023-04-24T14:01:28;16.80;61.70
31038;DHT22;17702;47.590;7.666;2023-04-24T14:03:55;16.80;63.00
31038;DHT22;17702;47.590;7.666;2023-04-24T14:06:21;16.80;66.40
31038;DHT22;17702;47.590;7.666;2023-04-24T14:08:47;17.00;68.20
31038;DHT22;17702;47.590;7.666;2023-04-24T14:11:13;17.10;68.30
31038;DHT22;17702;47.590;7.666;2023-04-24T14:13:38;17.40;65.10
31038;DHT22;17702;47.590;7.666;2023-04-24T14:16:05;17.50;65.70
31038;DHT22;17702;47.590;7.666;2023-04-24T14:18:31;17.50;65.60
31038;DHT22;17702;47.590;7.666;2023-04-24T14:20:57;17.50;66.40
31038;DHT22;17702;47.590;7.666;2023-04-24T14:23:22;17.50;66.70
31038;DHT22;17702;47.590;7.666;2023-04-24T14:25:48;17.40;65.50
31038;DHT22;17702;47.590;7.666;2023-04-24T14:28:16;17.40;64.10
31038;DHT22;17702;47.590;7.666;2023-04-24T14:30:42;17.20;62.90
31038;DHT22;17702;47.590;7.666;2023-04-24T14:33:07;17.00;64.30
31038;DHT22;17702;47.590;7.666;2023-04-24T14:35:33;16.90;64.30
31038;DHT22;17702;47.590;7.666;2023-04-24T14:38:00;16.70;64.20
31038;DHT22;17702;47.590;7.666;2023-04-24T14:40:26;16.60;65.20
31038;DHT22;17702;47.590;7.666;2023-04-24T14:42:51;16.40;66.70
31038;DHT22;17702;47.590;7.666;2023-04-24T14:45:17;16.30;66.80
31038;DHT22;17702;47.590;7.666;2023-04-24T14:47:42;16.40;68.10
31038;DHT22;17702;47.590;7.666;2023-04-24T14:50:08;16.50;67.90
31038;DHT22;17702;47.590;7.666;2023-04-24T14:52:33;16.60;65.80
31038;DHT22;17702;47.590;7.666;2023-04-24T14:54:59;16.70;63.00
31038;DHT22;17702;47.590;7.666;2023-04-24T14:57:24;16.80;62.40
31038;DHT22;17702;47.590;7.666;2023-04-24T14:59:50;16.90;65.00
31038;DHT22;17702;47.590;7.666;2023-04-24T15:02:16;17.10;65.10
31038;DHT22;17702;47.590;7.666;2023-04-24T15:04:41;17.30;64.20
31038;DHT22;17702;47.590;7.666;2023-04-24T15:07:07;17.50;63.20
31038;DHT22;17702;47.590;7.666;2023-04-24T15:09:32;17.40;61.60
31038;DHT22;17702;47.590;7.666;2023-04-24T15:11:58;17.40;61.80
31038;DHT22;17702;47.590;7.666;2023-04-24T15:14:23;17.30;63.60
31038;DHT22;17702;47.590;7.666;2023-04-24T15:16:49;17.30;63.30
31038;DHT22;17702;47.590;7.666;2023-04-24T15:19:15;17.30;59.80
31038;DHT22;17702;47.590;7.666;2023-04-24T15:21:40;17.10;62.80
31038;DHT22;17702;47.590;7.666;2023-04-24T15:24:07;17.00;61.90
31038;DHT22;17702;47.590;7.666;2023-04-24T15:26:33;16.80;62.60
31038;DHT22;17702;47.590;7.666;2023-04-24T15:28:59;16.60;63.20
31038;DHT22;17702;47.590;7.666;2023-04-24T15:31:24;16.60;65.40
31038;DHT22;17702;47.590;7.666;2023-04-24T15:33:50;16.50;65.90